createdAt,value
2022-09-27T00:01:14.415Z,99320.00
2022-09-27T00:03:42.076Z,99332.00
2022-09-27T00:06:29.905Z,99340.00
2022-09-27T00:08:57.846Z,99333.00
2022-09-27T00:11:30.574Z,99333.00
2022-09-27T00:13:59.819Z,99332.00
2022-09-27T00:16:31.820Z,99343.00
2022-09-27T00:19:01.824Z,99338.00
2022-09-27T00:21:30.871Z,99344.00
2022-09-27T00:23:59.513Z,99350.00
2022-09-27T00:26:27.889Z,99349.00
2022-09-27T00:28:57.840Z,99349.00
2022-09-27T00:31:30.542Z,99358.00
2022-09-27T00:34:01.119Z,99355.00
2022-09-27T00:36:30.052Z,99351.00
2022-09-27T00:38:59.957Z,99355.00
2022-09-27T00:41:32.955Z,99357.00
2022-09-27T00:44:32.521Z,99361.00
2022-09-27T00:47:16.716Z,99362.00
2022-09-27T00:50:05.350Z,99364.00
2022-09-27T00:53:17.846Z,99359.00
2022-09-27T00:56:01.813Z,99362.00
2022-09-27T00:58:43.315Z,99368.00
2022-09-27T01:01:10.886Z,99361.00
2022-09-27T01:03:46.835Z,99364.00
2022-09-27T01:06:15.733Z,99362.00
2022-09-27T01:08:42.840Z,99362.00
2022-09-27T01:11:40.564Z,99372.00
2022-09-27T01:14:25.803Z,99362.00
2022-09-27T01:17:02.793Z,99372.00
2022-09-27T01:19:39.383Z,99372.00
2022-09-27T01:22:21.218Z,99366.00
2022-09-27T01:25:24.623Z,99377.00
2022-09-27T01:28:37.812Z,99391.00
2022-09-27T01:31:13.206Z,99383.00
2022-09-27T01:34:09.983Z,99384.00
2022-09-27T01:37:04.839Z,99377.00
2022-09-27T01:39:53.433Z,99376.00
2022-09-27T01:42:42.438Z,99379.00
2022-09-27T01:45:44.125Z,99377.00
2022-09-27T01:48:24.435Z,99369.00
2022-09-27T01:51:38.891Z,99381.00
2022-09-27T01:54:09.006Z,99388.00
2022-09-27T01:56:45.200Z,99381.00
2022-09-27T01:59:36.973Z,99386.00
2022-09-27T02:02:10.099Z,99397.00
2022-09-27T02:04:41.032Z,99391.00
2022-09-27T02:07:40.346Z,99389.00
2022-09-27T02:10:20.819Z,99382.00
2022-09-27T02:12:58.373Z,99403.00
2022-09-27T02:15:27.594Z,99392.00
2022-09-27T02:18:07.946Z,99407.00
2022-09-27T02:20:41.663Z,99396.00
2022-09-27T02:23:40.372Z,99410.00
2022-09-27T02:26:17.996Z,99417.00
2022-09-27T02:29:08.111Z,99414.00
2022-09-27T02:31:35.410Z,99406.00
2022-09-27T02:34:27.498Z,99408.00
2022-09-27T02:36:55.207Z,99404.00
2022-09-27T02:39:23.951Z,99413.00
2022-09-27T02:41:52.276Z,99413.00
2022-09-27T02:44:21.561Z,99419.00
2022-09-27T02:47:22.648Z,99423.00
2022-09-27T02:49:52.773Z,99416.00
2022-09-27T02:52:35.702Z,99409.00
2022-09-27T02:55:38.942Z,99424.00
2022-09-27T02:58:53.353Z,99427.00
2022-09-27T03:01:31.577Z,99423.00
2022-09-27T03:04:10.527Z,99426.00
2022-09-27T03:06:42.770Z,99421.00
2022-09-27T03:09:21.710Z,99425.00
2022-09-27T03:11:49.163Z,99423.00
2022-09-27T03:14:16.832Z,99424.00
2022-09-27T03:16:43.873Z,99420.00
2022-09-27T03:19:10.996Z,99422.00
2022-09-27T03:21:38.031Z,99413.00
2022-09-27T03:24:05.275Z,99418.00
2022-09-27T03:26:32.357Z,99418.00
2022-09-27T03:28:59.324Z,99404.00
2022-09-27T03:31:26.487Z,99416.00
2022-09-27T03:33:53.604Z,99405.00
2022-09-27T03:36:20.603Z,99416.00
2022-09-27T03:38:47.832Z,99425.00
2022-09-27T03:41:14.814Z,99416.00
2022-09-27T03:43:41.976Z,99413.00
2022-09-27T03:46:09.198Z,99416.00
2022-09-27T03:48:36.434Z,99415.00
2022-09-27T03:51:04.696Z,99426.00
2022-09-27T03:53:31.754Z,99423.00
2022-09-27T03:55:58.937Z,99431.00
2022-09-27T03:58:26.329Z,99421.00
2022-09-27T04:00:53.492Z,99435.00
2022-09-27T04:03:20.646Z,99422.00
2022-09-27T04:05:47.904Z,99424.00
2022-09-27T04:08:15.081Z,99434.00
2022-09-27T04:10:43.404Z,99427.00
2022-09-27T04:13:10.469Z,99432.00
2022-09-27T04:15:39.560Z,99427.00
2022-09-27T04:18:07.403Z,99424.00
2022-09-27T04:20:36.827Z,99437.00
2022-09-27T04:23:04.713Z,99442.00
2022-09-27T04:25:33.185Z,99439.00
2022-09-27T04:28:02.596Z,99445.00
2022-09-27T04:30:30.346Z,99436.00
2022-09-27T04:32:57.549Z,99446.00
2022-09-27T04:35:43.771Z,99445.00
2022-09-27T04:38:10.872Z,99451.00
2022-09-27T04:40:38.613Z,99461.00
2022-09-27T04:43:05.928Z,99452.00
2022-09-27T04:45:33.728Z,99441.00
2022-09-27T04:48:01.085Z,99458.00
2022-09-27T04:50:28.178Z,99456.00
2022-09-27T04:52:55.452Z,99465.00
2022-09-27T04:55:23.358Z,99446.00
2022-09-27T04:57:53.531Z,99443.00
2022-09-27T05:00:20.988Z,99460.00
2022-09-27T05:02:48.693Z,99446.00
2022-09-27T05:05:16.885Z,99457.00
2022-09-27T05:07:44.077Z,99450.00
2022-09-27T05:10:11.265Z,99456.00
2022-09-27T05:12:38.534Z,99450.00
2022-09-27T05:15:06.488Z,99438.00
2022-09-27T05:17:34.248Z,99422.00
2022-09-27T05:20:01.505Z,99428.00
2022-09-27T05:22:28.609Z,99443.00
2022-09-27T05:24:55.910Z,99441.00
2022-09-27T05:27:23.080Z,99445.00
2022-09-27T05:29:50.931Z,99446.00
2022-09-27T05:32:20.184Z,99452.00
2022-09-27T05:34:47.270Z,99451.00
2022-09-27T05:37:14.561Z,99458.00
2022-09-27T05:39:41.825Z,99473.00
2022-09-27T05:42:10.515Z,99477.00
2022-09-27T05:44:39.542Z,99470.00
2022-09-27T05:47:07.267Z,99480.00
2022-09-27T05:49:35.154Z,99475.00
2022-09-27T05:52:03.341Z,99489.00
2022-09-27T05:54:30.524Z,99481.00
2022-09-27T05:56:58.558Z,99488.00
2022-09-27T05:59:26.919Z,99482.00
2022-09-27T06:01:55.308Z,99483.00
2022-09-27T06:04:22.979Z,99492.00
2022-09-27T06:06:50.150Z,99491.00
2022-09-27T06:09:18.028Z,99483.00
2022-09-27T06:11:46.353Z,99482.00
2022-09-27T06:14:14.217Z,99486.00
2022-09-27T06:16:41.738Z,99488.00
2022-09-27T06:19:11.851Z,99486.00
2022-09-27T06:21:39.071Z,99485.00
2022-09-27T06:24:07.338Z,99471.00
2022-09-27T06:26:34.429Z,99467.00
2022-09-27T06:29:01.629Z,99467.00
2022-09-27T06:31:28.821Z,99466.00
2022-09-27T06:33:55.930Z,99457.00
2022-09-27T06:36:23.100Z,99458.00
2022-09-27T06:38:50.249Z,99466.00
2022-09-27T06:41:17.325Z,99466.00
2022-09-27T06:43:45.345Z,99465.00
2022-09-27T06:46:12.574Z,99479.00
2022-09-27T06:48:39.798Z,99486.00
2022-09-27T06:51:07.069Z,99489.00
2022-09-27T06:53:34.290Z,99494.00
2022-09-27T06:56:02.633Z,99495.00
2022-09-27T06:58:48.733Z,99497.00
2022-09-27T07:01:16.708Z,99498.00
2022-09-27T07:03:44.534Z,99502.00
2022-09-27T07:06:23.943Z,99504.00
2022-09-27T07:08:53.418Z,99502.00
2022-09-27T07:11:23.716Z,99512.00
2022-09-27T07:13:52.164Z,99504.00
2022-09-27T07:16:19.677Z,99496.00
2022-09-27T07:18:49.822Z,99511.00
2022-09-27T07:21:17.044Z,99512.00
2022-09-27T07:23:44.236Z,99526.00
2022-09-27T07:26:12.843Z,99529.00
2022-09-27T07:28:42.717Z,99528.00
2022-09-27T07:31:10.478Z,99541.00
2022-09-27T07:33:42.993Z,99535.00
2022-09-27T07:36:12.736Z,99522.00
2022-09-27T07:38:39.888Z,99526.00
2022-09-27T07:41:14.952Z,99539.00
2022-09-27T07:43:46.375Z,99528.00
2022-09-27T07:46:13.829Z,99540.00
2022-09-27T07:48:41.503Z,99541.00
2022-09-27T07:51:10.949Z,99543.00
2022-09-27T07:53:38.353Z,99549.00
2022-09-27T07:56:05.757Z,99542.00
2022-09-27T07:58:33.044Z,99534.00
2022-09-27T08:01:02.629Z,99546.00
2022-09-27T08:03:30.027Z,99550.00
2022-09-27T08:05:57.185Z,99547.00
2022-09-27T08:08:24.481Z,99545.00
2022-09-27T08:10:51.685Z,99554.00
2022-09-27T08:13:20.626Z,99561.00
2022-09-27T08:15:48.852Z,99562.00
2022-09-27T08:18:17.804Z,99562.00
2022-09-27T08:20:45.215Z,99574.00
2022-09-27T08:23:12.426Z,99568.00
2022-09-27T08:25:40.353Z,99573.00
2022-09-27T08:28:07.432Z,99583.00
2022-09-27T08:30:34.597Z,99572.00
2022-09-27T08:33:03.605Z,99581.00
2022-09-27T08:35:34.082Z,99586.00
2022-09-27T08:38:06.172Z,99578.00
2022-09-27T08:40:58.011Z,99582.00
2022-09-27T08:44:11.716Z,99583.00
2022-09-27T08:47:34.362Z,99588.00
2022-09-27T08:50:30.624Z,99579.00
2022-09-27T08:53:31.133Z,99588.00
2022-09-27T08:56:03.983Z,99583.00
2022-09-27T08:58:36.012Z,99574.00
2022-09-27T09:01:06.801Z,99583.00
2022-09-27T09:03:45.259Z,99579.00
2022-09-27T09:06:26.903Z,99579.00
2022-09-27T09:09:45.044Z,99574.00
2022-09-27T09:12:48.312Z,99576.00
2022-09-27T09:15:57.229Z,99583.00
2022-09-27T09:18:51.563Z,99583.00
2022-09-27T09:21:36.733Z,99583.00
2022-09-27T09:24:31.214Z,99579.00
2022-09-27T09:27:32.035Z,99574.00
2022-09-27T09:30:19.407Z,99568.00
2022-09-27T09:32:52.360Z,99573.00
2022-09-27T09:35:48.355Z,99575.00
2022-09-27T09:38:24.251Z,99567.00
2022-09-27T09:41:29.138Z,99571.00
2022-09-27T09:44:04.984Z,99578.00
2022-09-27T09:46:45.350Z,99573.00
2022-09-27T09:49:30.163Z,99575.00
2022-09-27T09:52:08.905Z,99573.00
2022-09-27T09:54:45.945Z,99582.00
2022-09-27T09:57:33.951Z,99576.00
2022-09-27T10:00:14.037Z,99573.00
2022-09-27T10:02:44.955Z,99576.00
2022-09-27T10:05:20.673Z,99576.00
2022-09-27T10:07:53.138Z,99571.00
2022-09-27T10:10:22.344Z,99555.00
2022-09-27T10:12:50.536Z,99574.00
2022-09-27T10:15:29.004Z,99572.00
2022-09-27T10:17:59.928Z,99573.00
2022-09-27T10:21:00.743Z,99565.00
2022-09-27T10:23:28.801Z,99564.00
2022-09-27T10:26:02.362Z,99574.00
2022-09-27T10:28:42.523Z,99578.00
2022-09-27T10:31:18.561Z,99574.00
2022-09-27T10:34:07.559Z,99565.00
2022-09-27T10:36:36.679Z,99572.00
2022-09-27T10:39:07.190Z,99570.00
2022-09-27T10:41:37.100Z,99562.00
2022-09-27T10:44:16.447Z,99569.00
2022-09-27T10:46:46.575Z,99564.00
2022-09-27T10:49:29.936Z,99562.00
2022-09-27T10:52:05.367Z,99557.00
2022-09-27T10:54:39.837Z,99572.00
2022-09-27T10:57:26.133Z,99564.00
2022-09-27T11:00:20.962Z,99568.00
2022-09-27T11:02:56.261Z,99569.00
2022-09-27T11:05:28.090Z,99562.00
2022-09-27T11:08:24.210Z,99567.00
2022-09-27T11:11:17.050Z,99568.00
2022-09-27T11:14:08.155Z,99574.00
2022-09-27T11:17:07.829Z,99567.00
2022-09-27T11:20:13.501Z,99573.00
2022-09-27T11:23:13.109Z,99576.00
2022-09-27T11:26:23.668Z,99578.00
2022-09-27T11:29:24.341Z,99585.00
2022-09-27T11:32:22.993Z,99587.00
2022-09-27T11:35:06.673Z,99582.00
2022-09-27T11:38:02.461Z,99585.00
2022-09-27T11:40:53.248Z,99587.00
2022-09-27T11:43:42.718Z,99585.00
2022-09-27T11:46:41.668Z,99581.00
2022-09-27T11:50:02.609Z,99584.00
2022-09-27T11:52:54.468Z,99577.00
2022-09-27T11:55:44.269Z,99576.00
2022-09-27T11:58:39.182Z,99578.00
2022-09-27T12:01:49.165Z,99570.00
2022-09-27T12:04:51.897Z,99574.00
2022-09-27T12:07:43.534Z,99574.00
2022-09-27T12:10:17.046Z,99570.00
2022-09-27T12:12:58.725Z,99562.00
2022-09-27T12:15:33.182Z,99565.00
2022-09-27T12:18:29.697Z,99564.00
2022-09-27T12:21:00.047Z,99544.00
2022-09-27T12:23:41.072Z,99548.00
2022-09-27T12:26:38.019Z,99552.00
2022-09-27T12:29:33.664Z,99554.00
2022-09-27T12:32:35.258Z,99557.00
2022-09-27T12:35:32.509Z,99549.00
2022-09-27T12:38:17.437Z,99549.00
2022-09-27T12:40:54.131Z,99552.00
2022-09-27T12:43:28.586Z,99555.00
2022-09-27T12:46:30.634Z,99554.00
2022-09-27T12:49:29.365Z,99551.00
2022-09-27T12:52:12.025Z,99554.00
2022-09-27T12:55:22.343Z,99552.00
2022-09-27T12:58:30.345Z,99542.00
2022-09-27T13:01:35.186Z,99555.00
2022-09-27T13:04:46.842Z,99549.00
2022-09-27T13:07:41.038Z,99549.00
2022-09-27T13:10:17.230Z,99554.00
2022-09-27T13:12:54.700Z,99549.00
2022-09-27T13:15:37.201Z,99544.00
2022-09-27T13:18:18.243Z,99539.00
2022-09-27T13:20:49.312Z,99539.00
2022-09-27T13:23:19.869Z,99533.00
2022-09-27T13:25:56.768Z,99544.00
2022-09-27T13:28:32.633Z,99542.00
2022-09-27T13:31:00.738Z,99540.00
2022-09-27T13:33:47.144Z,99544.00
2022-09-27T13:36:31.279Z,99554.00
2022-09-27T13:39:11.935Z,99550.00
2022-09-27T13:41:45.159Z,99554.00
2022-09-27T13:44:18.060Z,99549.00
2022-09-27T13:47:00.745Z,99547.00
2022-09-27T13:49:38.582Z,99538.00
2022-09-27T13:52:36.700Z,99536.00
2022-09-27T13:55:41.499Z,99542.00
2022-09-27T13:58:41.194Z,99534.00
2022-09-27T14:01:31.866Z,99534.00
2022-09-27T14:04:42.419Z,99535.00
2022-09-27T14:07:17.319Z,99533.00
2022-09-27T14:09:49.499Z,99531.00
2022-09-27T14:12:27.591Z,99538.00
2022-09-27T14:14:56.658Z,99530.00
2022-09-27T14:17:25.006Z,99533.00
2022-09-27T14:19:54.398Z,99530.00
2022-09-27T14:22:24.069Z,99536.00
2022-09-27T14:24:54.552Z,99536.00
2022-09-27T14:27:28.592Z,99543.00
2022-09-27T14:30:02.626Z,99537.00
2022-09-27T14:32:37.680Z,99552.00
2022-09-27T14:35:44.988Z,99563.00
2022-09-27T14:38:36.550Z,99564.00
2022-09-27T14:41:08.527Z,99566.00
2022-09-27T14:43:43.988Z,99564.00
2022-09-27T14:46:30.252Z,99547.00
2022-09-27T14:48:59.503Z,99549.00
2022-09-27T14:51:35.843Z,99545.00
2022-09-27T14:54:05.726Z,99551.00
2022-09-27T14:56:37.836Z,99536.00
2022-09-27T14:59:35.014Z,99543.00
2022-09-27T15:02:21.051Z,99549.00
2022-09-27T15:04:51.485Z,99553.00
2022-09-27T15:07:22.367Z,99541.00
2022-09-27T15:09:51.724Z,99532.00
2022-09-27T15:12:25.845Z,99547.00
2022-09-27T15:14:56.720Z,99543.00
2022-09-27T15:17:25.477Z,99544.00
2022-09-27T15:20:33.747Z,99557.00
2022-09-27T15:23:06.290Z,99556.00
2022-09-27T15:25:35.061Z,99555.00
2022-09-27T15:28:19.515Z,99554.00
2022-09-27T15:30:57.710Z,99549.00
2022-09-27T15:33:54.431Z,99555.00
2022-09-27T15:36:53.021Z,99554.00
2022-09-27T15:39:33.951Z,99552.00
2022-09-27T15:42:20.261Z,99550.00
2022-09-27T15:44:52.478Z,99546.00
2022-09-27T15:47:40.843Z,99542.00
2022-09-27T15:50:17.006Z,99542.00
2022-09-27T15:52:55.955Z,99546.00
2022-09-27T15:55:27.145Z,99549.00
2022-09-27T15:58:15.726Z,99552.00
2022-09-27T16:00:58.856Z,99548.00
2022-09-27T16:03:27.447Z,99548.00
2022-09-27T16:05:57.536Z,99535.00
2022-09-27T16:09:04.460Z,99537.00
2022-09-27T16:11:31.574Z,99511.00
2022-09-27T16:13:58.705Z,99523.00
2022-09-27T16:16:26.080Z,99511.00
2022-09-27T16:18:53.516Z,99510.00
2022-09-27T16:21:20.648Z,99518.00
2022-09-27T16:23:47.860Z,99515.00
2022-09-27T16:26:14.916Z,99506.00
2022-09-27T16:28:41.959Z,99512.00
2022-09-27T16:31:12.196Z,99510.00
2022-09-27T16:33:39.386Z,99508.00
2022-09-27T16:36:16.181Z,99511.00
2022-09-27T16:38:43.854Z,99519.00
2022-09-27T16:41:11.025Z,99514.00
2022-09-27T16:43:38.260Z,99511.00
2022-09-27T16:46:11.851Z,99519.00
2022-09-27T16:48:40.059Z,99519.00
2022-09-27T16:51:40.142Z,99509.00
2022-09-27T16:54:08.677Z,99503.00
2022-09-27T16:56:37.050Z,99515.00
2022-09-27T16:59:06.825Z,99507.00
2022-09-27T17:01:34.948Z,99504.00
2022-09-27T17:04:02.575Z,99507.00
2022-09-27T17:06:32.033Z,99495.00
2022-09-27T17:09:04.469Z,99488.00
2022-09-27T17:11:33.086Z,99487.00
2022-09-27T17:14:00.432Z,99481.00
2022-09-27T17:16:28.599Z,99487.00
2022-09-27T17:18:55.933Z,99485.00
2022-09-27T17:21:23.455Z,99471.00
2022-09-27T17:23:51.280Z,99474.00
2022-09-27T17:26:23.785Z,99475.00
2022-09-27T17:28:55.234Z,99473.00
2022-09-27T17:31:22.555Z,99473.00
2022-09-27T17:33:56.932Z,99465.00
2022-09-27T17:36:28.311Z,99465.00
2022-09-27T17:41:56.074Z,99467.00
2022-09-27T17:44:24.111Z,99471.00
2022-09-27T17:47:11.689Z,99469.00
2022-09-27T17:49:57.520Z,99463.00
2022-09-27T17:52:26.747Z,99468.00
2022-09-27T17:54:55.924Z,99469.00
2022-09-27T17:57:23.410Z,99481.00
2022-09-27T17:59:54.300Z,99469.00
2022-09-27T18:02:23.142Z,99462.00
2022-09-27T18:04:50.482Z,99467.00
2022-09-27T18:07:18.574Z,99467.00
2022-09-27T18:09:48.503Z,99454.00
2022-09-27T18:12:17.177Z,99460.00
2022-09-27T18:14:45.151Z,99447.00
2022-09-27T18:17:13.221Z,99452.00
2022-09-27T18:19:40.736Z,99446.00
2022-09-27T18:22:31.361Z,99449.00
2022-09-27T18:24:58.731Z,99452.00
2022-09-27T18:27:26.062Z,99450.00
2022-09-27T18:29:54.383Z,99455.00
2022-09-27T18:32:21.529Z,99443.00
2022-09-27T18:34:48.938Z,99441.00
2022-09-27T18:37:16.133Z,99435.00
2022-09-27T18:39:43.396Z,99436.00
2022-09-27T18:42:10.785Z,99446.00
2022-09-27T18:44:37.948Z,99441.00
2022-09-27T18:47:05.142Z,99442.00
2022-09-27T18:49:34.216Z,99443.00
2022-09-27T18:52:02.784Z,99438.00
2022-09-27T18:54:29.975Z,99437.00
2022-09-27T18:56:57.268Z,99437.00
2022-09-27T18:59:46.465Z,99435.00
2022-09-27T19:02:13.889Z,99425.00
2022-09-27T19:04:41.508Z,99433.00
2022-09-27T19:07:10.207Z,99433.00
2022-09-27T19:09:37.596Z,99433.00
2022-09-27T19:12:05.362Z,99417.00
2022-09-27T19:14:32.680Z,99420.00
2022-09-27T19:17:00.180Z,99409.00
2022-09-27T19:19:27.611Z,99417.00
2022-09-27T19:21:54.751Z,99415.00
2022-09-27T19:24:21.904Z,99422.00
2022-09-27T19:26:53.780Z,99420.00
2022-09-27T19:29:21.091Z,99429.00
2022-09-27T19:31:48.532Z,99420.00
2022-09-27T19:34:15.967Z,99425.00
2022-09-27T19:36:43.241Z,99426.00
2022-09-27T19:39:10.417Z,99423.00
2022-09-27T19:41:38.857Z,99425.00
2022-09-27T19:44:06.972Z,99419.00
2022-09-27T19:46:34.273Z,99420.00
2022-09-27T19:49:01.684Z,99421.00
2022-09-27T19:51:28.983Z,99429.00
2022-09-27T19:53:56.829Z,99429.00
2022-09-27T19:56:25.073Z,99429.00
2022-09-27T19:58:58.325Z,99428.00
2022-09-27T20:01:26.349Z,99424.00
2022-09-27T20:03:59.892Z,99429.00
2022-09-27T20:06:27.119Z,99423.00
2022-09-27T20:08:57.200Z,99435.00
2022-09-27T20:11:26.839Z,99422.00
2022-09-27T20:13:54.124Z,99425.00
2022-09-27T20:16:27.032Z,99417.00
2022-09-27T20:18:57.798Z,99419.00
2022-09-27T20:21:32.856Z,99415.00
2022-09-27T20:24:05.256Z,99399.00
2022-09-27T20:26:36.740Z,99407.00
2022-09-27T20:29:05.955Z,99393.00
2022-09-27T20:31:37.355Z,99388.00
2022-09-27T20:35:23.949Z,99385.00
2022-09-27T20:37:51.091Z,99370.00
2022-09-27T20:40:18.350Z,99369.00
2022-09-27T20:42:45.963Z,99348.00
2022-09-27T20:45:13.192Z,99359.00
2022-09-27T20:47:40.351Z,99361.00
2022-09-27T20:50:07.997Z,99336.00
2022-09-27T20:52:35.082Z,99326.00
2022-09-27T20:55:02.392Z,99347.00
2022-09-27T20:57:53.257Z,99333.00
2022-09-27T21:00:16.837Z,99344.00
2022-09-27T21:02:44.038Z,99331.00
2022-09-27T21:05:11.871Z,99334.00
2022-09-27T21:07:38.988Z,99332.00
2022-09-27T21:10:07.322Z,99320.00
2022-09-27T21:12:34.519Z,99325.00
2022-09-27T21:15:01.825Z,99326.00
2022-09-27T21:17:29.127Z,99329.00
2022-09-27T21:19:56.293Z,99334.00
2022-09-27T21:22:23.547Z,99324.00
2022-09-27T21:24:50.759Z,99322.00
2022-09-27T21:27:18.094Z,99312.00
2022-09-27T21:29:45.176Z,99321.00
2022-09-27T21:32:12.442Z,99313.00
2022-09-27T21:34:39.497Z,99321.00
2022-09-27T21:37:06.834Z,99308.00
2022-09-27T21:39:34.005Z,99314.00
2022-09-27T21:42:04.172Z,99312.00
2022-09-27T21:44:31.447Z,99312.00
2022-09-27T21:46:58.658Z,99313.00
2022-09-27T21:49:26.373Z,99324.00
2022-09-27T21:51:54.851Z,99322.00
2022-09-27T21:54:21.959Z,99326.00
2022-09-27T21:56:51.337Z,99321.00
2022-09-27T21:59:18.762Z,99316.00
2022-09-27T22:01:47.182Z,99311.00
2022-09-27T22:04:16.306Z,99315.00
2022-09-27T22:06:44.472Z,99316.00
2022-09-27T22:09:17.093Z,99300.00
2022-09-27T22:11:46.361Z,99306.00
2022-09-27T22:14:18.921Z,99306.00
2022-09-27T22:16:47.525Z,99294.00
2022-09-27T22:19:16.023Z,99298.00
2022-09-27T22:21:43.443Z,99306.00
2022-09-27T22:24:17.606Z,99293.00
2022-09-27T22:26:53.476Z,99308.00
2022-09-27T22:29:20.953Z,99309.00
2022-09-27T22:31:48.528Z,99299.00
2022-09-27T22:34:28.903Z,99307.00
2022-09-27T22:36:58.946Z,99304.00
2022-09-27T22:39:26.121Z,99291.00
2022-09-27T22:41:53.221Z,99283.00
2022-09-27T22:44:20.428Z,99291.00
2022-09-27T22:46:47.591Z,99292.00
2022-09-27T22:49:14.830Z,99289.00
2022-09-27T22:51:42.026Z,99296.00
2022-09-27T22:54:09.147Z,99294.00
2022-09-27T22:56:36.364Z,99300.00
2022-09-27T22:59:03.549Z,99298.00
2022-09-27T23:01:31.703Z,99296.00
2022-09-27T23:03:59.594Z,99297.00
2022-09-27T23:06:26.853Z,99295.00
2022-09-27T23:08:55.002Z,99292.00
2022-09-27T23:11:22.969Z,99308.00
2022-09-27T23:13:51.448Z,99299.00
2022-09-27T23:16:24.948Z,99305.00
2022-09-27T23:18:56.914Z,99300.00
2022-09-27T23:21:26.376Z,99304.00
2022-09-27T23:23:56.434Z,99299.00
2022-09-27T23:26:26.676Z,99292.00
2022-09-27T23:29:00.629Z,99299.00
2022-09-27T23:31:33.470Z,99294.00
2022-09-27T23:34:05.957Z,99290.00
2022-09-27T23:36:34.583Z,99294.00
2022-09-27T23:39:01.792Z,99290.00
2022-09-27T23:41:29.592Z,99289.00
2022-09-27T23:43:56.823Z,99287.00
2022-09-27T23:46:25.146Z,99284.00
2022-09-27T23:48:53.700Z,99290.00
2022-09-27T23:51:20.917Z,99277.00
2022-09-27T23:53:48.051Z,99282.00
2022-09-27T23:56:17.574Z,99277.00
2022-09-27T23:58:46.705Z,99274.00
